Ricard, New York
Current Conditions -  °F | °C
As of 1:54 AM on Saturday 25 Oct 2014 (Local Time) from KFZY Reporting Station
Clear Clear  
Wind Chill: 41°   Ceiling: Unl
Heat Index: 44°   Visibility: 9mi
Dew Point: 39°   Wind: 6mph
Humidity: 82%   Direction: 210°SSW
Pressure: 29.88"   Gusts: NA
Location:  43.4945°N, 75.9612°W
Report Text: KFZY 250554Z AUTO 21005KT 9SM CLR 07/04 A2988 RMK AO2 SLP118 T00670039 10094 20061 58011
Loading
Personal Weather Stations






























Interactive Weather Map
Tropical Storm Tracking
New forecast layout! Learn more

10-Day Weather Forecast

Advertisements
Track Severe Weather on mobile